Time;durP1;ratioP1;P1;durP2;ratioP2;P2;SDS_P1;SDS_P2;PMS_P1;PMS_P2;Temp;Humidity;BMP_temperature;BMP_pressure;BME280_temperature;BME280_humidity;BME280_pressure;Samples;Min_cycle;Max_cycle;Signal;HPM_P1;HPM_P2
2022/09/14 00:01:54;;;;;;;2.33;1.50;;;19.90;90.90;;;;;;5005361;28;20647;-78
2022/09/14 00:04:21;;;;;;;2.33;2.13;;;19.90;90.80;;;;;;5007949;28;20629;-78
2022/09/14 00:06:49;;;;;;;1.60;1.50;;;19.80;90.80;;;;;;5007743;28;20652;-79
2022/09/14 00:09:20;;;;;;;2.40;1.70;;;19.90;91.00;;;;;;5007842;28;20652;-78
2022/09/14 00:11:47;;;;;;;1.57;1.23;;;19.80;91.10;;;;;;5008100;28;20626;-78
2022/09/14 00:14:15;;;;;;;1.67;1.57;;;19.80;91.70;;;;;;5007329;28;20731;-80
2022/09/14 00:16:42;;;;;;;1.20;1.10;;;19.80;91.60;;;;;;5008396;28;20986;-79
2022/09/14 00:19:16;;;;;;;1.67;1.50;;;19.70;91.90;;;;;;5007675;28;20655;-78
2022/09/14 00:21:43;;;;;;;1.40;1.40;;;19.70;92.40;;;;;;5007400;28;20632;-78
2022/09/14 00:24:11;;;;;;;1.67;1.57;;;19.60;92.60;;;;;;5007499;28;20739;-79
2022/09/14 00:26:39;;;;;;;1.30;1.20;;;19.70;92.20;;;;;;5008141;28;20635;-79
2022/09/14 00:29:06;;;;;;;2.00;1.43;;;19.80;92.30;;;;;;5007783;28;20693;-77
2022/09/14 00:31:34;;;;;;;1.60;1.40;;;19.70;92.80;;;;;;5007173;28;20627;-77
2022/09/14 00:34:01;;;;;;;2.47;1.47;;;19.70;92.80;;;;;;5001860;28;20637;-76
2022/09/14 00:36:29;;;;;;;2.57;1.87;;;19.60;92.20;;;;;;5006138;28;20655;-78
2022/09/14 00:38:57;;;;;;;1.30;1.20;;;19.60;92.40;;;;;;5002488;28;20720;-77
2022/09/14 00:41:26;;;;;;;1.77;1.67;;;19.50;93.10;;;;;;4995218;28;20663;-78
2022/09/14 00:44:00;;;;;;;1.63;1.53;;;19.50;93.40;;;;;;5000062;28;20714;-79
2022/09/14 00:46:29;;;;;;;1.50;1.40;;;19.60;93.20;;;;;;5006814;28;20664;-78
2022/09/14 00:48:59;;;;;;;1.30;1.30;;;19.50;93.30;;;;;;5007269;28;20624;-77
2022/09/14 00:51:27;;;;;;;1.63;1.53;;;19.60;93.80;;;;;;5007176;28;20620;-78
2022/09/14 00:53:54;;;;;;;1.23;1.20;;;19.50;94.40;;;;;;4991489;28;20628;-79
2022/09/14 00:56:21;;;;;;;1.70;1.60;;;19.50;94.90;;;;;;5007195;28;20660;-77
2022/09/14 00:58:50;;;;;;;2.20;2.00;;;19.40;94.50;;;;;;5006044;28;20659;-81
2022/09/14 01:01:19;;;;;;;1.50;1.40;;;19.40;94.80;;;;;;5007389;28;20674;-77
2022/09/14 01:03:46;;;;;;;1.60;1.50;;;19.50;94.10;;;;;;5007157;28;20643;-78
2022/09/14 01:06:19;;;;;;;1.90;1.80;;;19.50;93.80;;;;;;5006936;28;20756;-77
2022/09/14 01:09:03;;;;;;;1.63;1.37;;;19.50;94.30;;;;;;5006846;28;20621;-79
2022/09/14 01:11:52;;;;;;;3.07;1.30;;;19.50;94.10;;;;;;5007984;28;20617;-78
2022/09/14 01:14:26;;;;;;;1.57;1.47;;;19.60;94.20;;;;;;5010476;28;20628;-78
2022/09/14 01:17:05;;;;;;;1.67;1.57;;;19.70;94.30;;;;;;5011608;28;21017;-77
2022/09/14 01:19:57;;;;;;;1.90;1.80;;;19.60;94.80;;;;;;5010801;28;20631;-77
2022/09/14 01:22:35;;;;;;;1.63;1.53;;;19.10;97.50;;;;;;5003174;28;20636;-77
2022/09/14 01:25:11;;;;;;;1.70;1.60;;;19.10;97.80;;;;;;5010379;28;21518;-78
2022/09/14 01:27:43;;;;;;;3.40;2.33;;;19.10;97.20;;;;;;5011732;28;20673;-80
2022/09/14 01:30:13;;;;;;;1.80;1.67;;;19.10;99.90;;;;;;5003109;28;20621;-80
2022/09/14 01:32:45;;;;;;;1.37;1.00;;;18.90;99.90;;;;;;5008103;28;20608;-79
2022/09/14 01:35:18;;;;;;;1.30;1.20;;;18.60;99.90;;;;;;5008185;28;20671;-78
2022/09/14 01:37:50;;;;;;;0.80;0.80;;;18.40;99.90;;;;;;5009791;28;20682;-79
2022/09/14 01:40:23;;;;;;;1.07;1.00;;;18.20;99.90;;;;;;5010210;28;20635;-79
2022/09/14 01:42:58;;;;;;;1.43;1.30;;;18.10;99.90;;;;;;5010784;28;20726;-79
2022/09/14 01:45:28;;;;;;;2.77;0.93;;;18.10;99.90;;;;;;5010124;28;21457;-79
2022/09/14 01:48:00;;;;;;;0.90;0.80;;;18.10;99.90;;;;;;5010805;28;20639;-79
2022/09/14 01:50:32;;;;;;;1.70;1.10;;;18.10;99.90;;;;;;5010271;28;20647;-78
2022/09/14 01:53:07;;;;;;;1.00;0.73;;;18.10;99.90;;;;;;5010321;28;21470;-80
2022/09/14 01:55:42;;;;;;;1.23;1.13;;;18.10;99.90;;;;;;5010084;28;20670;-79
2022/09/14 01:58:15;;;;;;;2.40;0.90;;;18.10;99.90;;;;;;5009659;28;20634;-79
2022/09/14 02:00:46;;;;;;;2.60;2.40;;;18.10;99.90;;;;;;5011153;28;20628;-79
2022/09/14 02:03:17;;;;;;;1.10;1.00;;;18.10;99.90;;;;;;5009640;28;20638;-79
2022/09/14 02:05:55;;;;;;;1.43;1.30;;;18.20;99.90;;;;;;5009572;28;20639;-79
2022/09/14 02:08:24;;;;;;;1.43;1.30;;;18.20;99.90;;;;;;5010202;28;20620;-79
2022/09/14 02:10:51;;;;;;;1.10;1.00;;;18.10;99.90;;;;;;4994962;28;21075;-80
2022/09/14 02:13:19;;;;;;;1.30;1.20;;;18.00;99.90;;;;;;5010294;28;20628;-80
2022/09/14 02:15:49;;;;;;;7.00;3.27;;;18.00;99.90;;;;;;4998352;28;20669;-79
2022/09/14 02:18:16;;;;;;;1.67;1.57;;;18.00;99.90;;;;;;4995143;28;20631;-80
2022/09/14 02:20:46;;;;;;;1.10;1.07;;;17.90;99.90;;;;;;5010353;28;20632;-79
2022/09/14 02:23:14;;;;;;;4.00;2.00;;;18.00;99.90;;;;;;5009695;28;20620;-80
2022/09/14 02:25:41;;;;;;;2.30;2.10;;;18.00;99.90;;;;;;5010003;28;20608;-78
2022/09/14 02:28:09;;;;;;;2.40;1.53;;;17.90;99.90;;;;;;5009060;28;21315;-79
2022/09/14 02:30:49;;;;;;;1.83;1.73;;;18.10;99.90;;;;;;5009606;28;20631;-80
2022/09/14 02:33:23;;;;;;;1.60;1.50;;;18.10;99.90;;;;;;5002671;28;20636;-79
2022/09/14 02:35:54;;;;;;;3.30;2.33;;;18.00;99.90;;;;;;5007685;28;20671;-78
2022/09/14 02:38:33;;;;;;;2.57;2.37;;;17.90;99.90;;;;;;5009313;28;21151;-79
2022/09/14 02:41:05;;;;;;;3.13;1.67;;;17.80;99.90;;;;;;5009694;28;20735;-79
2022/09/14 02:43:42;;;;;;;1.70;1.60;;;18.00;99.90;;;;;;5001208;28;20640;-79
2022/09/14 02:46:17;;;;;;;2.27;1.97;;;17.90;99.90;;;;;;5008910;28;20726;-79
2022/09/14 02:48:52;;;;;;;1.67;1.57;;;17.90;99.90;;;;;;5009877;28;20631;-79
2022/09/14 02:51:27;;;;;;;1.53;1.23;;;17.80;99.90;;;;;;5009175;28;20619;-79
2022/09/14 02:54:01;;;;;;;2.17;1.57;;;17.80;99.90;;;;;;5009393;28;20737;-80
2022/09/14 02:56:29;;;;;;;2.37;2.17;;;17.80;99.90;;;;;;5009489;28;21357;-79
2022/09/14 02:58:56;;;;;;;3.63;2.23;;;17.80;99.90;;;;;;5008101;28;20628;-79
2022/09/14 03:01:26;;;;;;;1.80;1.70;;;17.80;99.90;;;;;;5008820;28;20751;-79
2022/09/14 03:03:54;;;;;;;2.23;2.10;;;17.80;99.90;;;;;;5005900;28;20631;-79
2022/09/14 03:06:22;;;;;;;1.90;1.80;;;17.70;99.90;;;;;;5008088;28;20663;-79
2022/09/14 03:08:50;;;;;;;2.00;1.70;;;17.70;99.90;;;;;;5009309;28;20658;-79
2022/09/14 03:11:17;;;;;;;2.60;2.40;;;17.80;99.90;;;;;;5008983;28;20631;-79
2022/09/14 03:13:45;;;;;;;2.40;2.20;;;17.80;99.90;;;;;;5009109;28;20640;-79
2022/09/14 03:16:14;;;;;;;2.40;1.73;;;17.70;99.90;;;;;;5008710;28;20663;-79
2022/09/14 03:18:43;;;;;;;1.90;1.80;;;17.80;99.90;;;;;;5008665;28;21245;-79
2022/09/14 03:21:13;;;;;;;1.87;1.77;;;17.70;99.90;;;;;;4989962;28;20641;-79
2022/09/14 03:23:42;;;;;;;2.53;2.23;;;17.70;99.90;;;;;;5004936;28;21308;-79
2022/09/14 03:26:10;;;;;;;3.17;2.80;;;17.70;99.90;;;;;;5008819;28;20723;-80
2022/09/14 03:28:37;;;;;;;1.90;1.80;;;17.80;99.90;;;;;;5008904;28;20612;-80
2022/09/14 03:31:06;;;;;;;2.40;2.20;;;17.90;99.90;;;;;;5008411;28;20682;-81
2022/09/14 03:33:34;;;;;;;2.10;1.90;;;17.90;99.90;;;;;;5008473;28;20624;-81
2022/09/14 03:36:11;;;;;;;2.20;2.10;;;17.90;99.90;;;;;;5007754;28;20656;-80
2022/09/14 03:38:38;;;;;;;2.47;2.10;;;18.00;99.90;;;;;;5008646;28;20708;-80
2022/09/14 03:41:08;;;;;;;2.50;2.30;;;17.90;99.90;;;;;;5008287;28;20646;-80
2022/09/14 03:43:35;;;;;;;2.10;1.90;;;18.00;99.90;;;;;;5008180;28;20627;-81
2022/09/14 03:46:05;;;;;;;1.80;1.70;;;18.00;99.90;;;;;;5009042;28;20613;-79
2022/09/14 03:48:32;;;;;;;1.70;1.60;;;18.10;99.90;;;;;;5009142;28;20647;-80
2022/09/14 03:51:02;;;;;;;1.93;1.43;;;18.10;99.90;;;;;;5003824;28;20627;-80
2022/09/14 03:53:29;;;;;;;2.07;1.90;;;18.10;99.90;;;;;;4991331;28;20621;-79
2022/09/14 03:55:56;;;;;;;2.70;2.10;;;18.10;99.90;;;;;;5008029;28;20644;-81
2022/09/14 03:58:24;;;;;;;2.20;2.00;;;18.10;99.90;;;;;;5001783;28;20652;-80
2022/09/14 04:00:53;;;;;;;2.50;2.30;;;18.00;99.90;;;;;;4995965;28;20625;-80
2022/09/14 04:03:19;;;;;;;2.17;1.97;;;18.00;99.90;;;;;;4995049;28;20636;-80
2022/09/14 04:05:54;;;;;;;2.77;1.93;;;18.10;99.90;;;;;;4998658;28;20671;-80
2022/09/14 04:08:23;;;;;;;2.10;1.90;;;18.10;99.90;;;;;;4996749;28;20623;-80
2022/09/14 04:10:50;;;;;;;1.73;1.63;;;18.00;99.90;;;;;;4997883;28;20632;-79
2022/09/14 04:13:17;;;;;;;6.00;2.30;;;18.00;99.90;;;;;;4999509;28;20617;-79
2022/09/14 04:15:43;;;;;;;1.77;1.67;;;18.00;99.90;;;;;;4995278;28;20634;-79
2022/09/14 04:18:11;;;;;;;1.80;1.70;;;18.00;99.90;;;;;;4998256;28;20633;-79
2022/09/14 04:20:37;;;;;;;2.33;2.20;;;18.10;99.90;;;;;;4997019;28;20695;-79
2022/09/14 04:23:04;;;;;;;2.67;1.90;;;18.10;99.90;;;;;;4998073;28;21040;-78
2022/09/14 04:25:32;;;;;;;2.83;2.63;;;18.10;99.90;;;;;;5008409;28;20624;-78
2022/09/14 04:27:59;;;;;;;2.07;1.90;;;18.00;99.90;;;;;;5008002;28;20636;-78
2022/09/14 04:30:26;;;;;;;2.27;2.07;;;18.00;99.90;;;;;;5007034;28;20617;-78
2022/09/14 04:32:54;;;;;;;2.63;2.40;;;18.00;99.90;;;;;;5006292;28;20639;-80
2022/09/14 04:35:31;;;;;;;2.33;2.13;;;18.00;99.90;;;;;;5006256;28;20632;-77
2022/09/14 04:37:57;;;;;;;2.50;2.30;;;18.00;99.90;;;;;;4990916;28;20671;-77
2022/09/14 04:40:27;;;;;;;3.00;2.70;;;18.00;99.90;;;;;;5007607;28;20628;-78
2022/09/14 04:42:55;;;;;;;3.73;3.37;;;18.00;99.90;;;;;;5007807;28;20625;-78
2022/09/14 04:45:22;;;;;;;2.50;2.30;;;18.00;99.90;;;;;;5006263;28;20727;-77
2022/09/14 04:47:49;;;;;;;3.40;2.77;;;18.00;99.90;;;;;;5007604;28;21109;-78
2022/09/14 04:50:16;;;;;;;2.57;2.40;;;18.00;99.90;;;;;;5007219;28;20731;-78
2022/09/14 04:52:42;;;;;;;3.17;2.90;;;18.00;99.90;;;;;;5007929;28;20731;-78
2022/09/14 04:55:10;;;;;;;2.60;2.40;;;18.00;99.90;;;;;;5007198;28;20635;-78
2022/09/14 04:57:36;;;;;;;3.53;3.23;;;18.00;99.90;;;;;;5006378;28;20726;-78
2022/09/14 05:00:06;;;;;;;2.67;2.47;;;17.90;99.90;;;;;;5006795;28;20632;-78
2022/09/14 05:02:32;;;;;;;3.03;2.83;;;17.90;99.90;;;;;;5004535;28;20706;-79
2022/09/14 05:04:59;;;;;;;2.70;2.50;;;17.90;99.90;;;;;;5006971;28;20624;-79
2022/09/14 05:07:27;;;;;;;2.30;2.10;;;18.00;99.90;;;;;;5007242;28;20625;-79
2022/09/14 05:09:54;;;;;;;1.90;1.80;;;17.90;99.90;;;;;;5007369;28;20736;-81
2022/09/14 05:12:21;;;;;;;2.13;2.03;;;18.00;99.90;;;;;;5007228;28;21179;-79
2022/09/14 05:14:48;;;;;;;2.10;2.00;;;17.90;99.90;;;;;;5007171;28;20638;-79
2022/09/14 05:17:16;;;;;;;3.17;2.87;;;18.10;99.90;;;;;;5006814;28;20670;-80
2022/09/14 05:19:42;;;;;;;3.00;2.80;;;18.00;99.90;;;;;;5007777;28;20630;-79
2022/09/14 05:22:09;;;;;;;2.87;2.67;;;18.10;99.90;;;;;;5006032;28;21206;-79
2022/09/14 05:24:36;;;;;;;2.60;1.97;;;18.10;99.90;;;;;;5005339;28;20628;-80
2022/09/14 05:27:03;;;;;;;4.50;2.30;;;18.10;99.90;;;;;;5006081;28;20631;-79
2022/09/14 05:29:30;;;;;;;2.37;2.27;;;18.20;99.90;;;;;;5006540;28;20731;-79
2022/09/14 05:31:57;;;;;;;2.17;2.07;;;18.20;99.90;;;;;;5006333;28;21252;-80
2022/09/14 05:34:26;;;;;;;4.00;3.60;;;18.30;99.90;;;;;;4997009;28;20744;-80
2022/09/14 05:36:52;;;;;;;2.80;2.60;;;18.30;99.90;;;;;;5004081;28;20669;-78
2022/09/14 05:39:20;;;;;;;2.67;2.47;;;18.30;99.90;;;;;;4999529;28;20739;-79
2022/09/14 05:41:48;;;;;;;2.77;2.57;;;18.30;99.90;;;;;;5000551;28;20628;-80
2022/09/14 05:44:15;;;;;;;2.83;2.63;;;18.30;99.90;;;;;;5006367;28;20624;-79
2022/09/14 05:46:42;;;;;;;3.37;3.07;;;18.30;99.90;;;;;;5006977;28;20628;-79
2022/09/14 05:49:09;;;;;;;2.40;2.27;;;18.40;99.90;;;;;;4997708;28;20613;-80
2022/09/14 05:51:37;;;;;;;2.33;2.13;;;18.40;99.90;;;;;;4995565;28;20629;-79
2022/09/14 05:54:08;;;;;;;5.20;2.50;;;18.50;99.90;;;;;;4996657;28;20727;-78
2022/09/14 05:56:36;;;;;;;2.80;2.60;;;18.40;99.90;;;;;;4995950;28;20667;-81
2022/09/14 05:59:04;;;;;;;3.80;2.47;;;18.50;99.90;;;;;;5001462;28;21531;-79
2022/09/14 06:01:32;;;;;;;4.20;3.50;;;18.50;99.90;;;;;;4999439;28;20730;-79
2022/09/14 06:04:02;;;;;;;2.53;2.33;;;18.50;99.90;;;;;;4999883;28;21209;-80
2022/09/14 06:06:30;;;;;;;3.20;2.53;;;18.50;99.90;;;;;;5003883;28;20629;-79
2022/09/14 06:08:58;;;;;;;3.40;2.63;;;18.50;99.90;;;;;;5010615;28;20628;-79
2022/09/14 06:11:28;;;;;;;2.50;2.30;;;18.60;99.90;;;;;;5009696;28;20620;-79
2022/09/14 06:13:55;;;;;;;3.03;2.63;;;18.60;99.90;;;;;;5010139;28;21216;-79
2022/09/14 06:16:23;;;;;;;4.20;3.37;;;18.60;99.90;;;;;;5001513;28;20663;-79
2022/09/14 06:18:51;;;;;;;2.90;2.30;;;18.70;99.90;;;;;;5004072;28;20763;-79
2022/09/14 06:21:21;;;;;;;2.90;2.70;;;18.80;99.90;;;;;;5009671;28;20763;-80
2022/09/14 06:23:48;;;;;;;2.40;2.20;;;18.80;99.90;;;;;;5004313;28;20678;-79
2022/09/14 06:26:17;;;;;;;2.13;1.87;;;18.80;99.90;;;;;;5007787;28;20658;-79
2022/09/14 06:28:44;;;;;;;2.50;2.40;;;18.80;99.90;;;;;;5000712;28;20629;-79
2022/09/14 06:31:13;;;;;;;2.20;2.00;;;18.80;99.90;;;;;;5006673;28;20776;-79
2022/09/14 06:33:43;;;;;;;2.90;2.70;;;18.90;99.90;;;;;;5000903;28;20620;-79
2022/09/14 06:36:13;;;;;;;2.43;2.33;;;18.90;99.90;;;;;;5001731;28;20659;-79
2022/09/14 06:38:41;;;;;;;2.57;2.37;;;18.90;99.90;;;;;;4992294;28;21278;-80
2022/09/14 06:41:09;;;;;;;2.13;1.90;;;19.00;99.90;;;;;;5009149;28;20651;-79
2022/09/14 06:43:38;;;;;;;2.33;2.13;;;19.00;99.90;;;;;;5005914;28;21213;-79
2022/09/14 06:46:07;;;;;;;3.40;2.60;;;19.10;99.90;;;;;;5003359;28;20626;-79
2022/09/14 06:48:36;;;;;;;2.40;2.20;;;19.10;99.90;;;;;;5010442;28;20651;-80
2022/09/14 06:51:12;;;;;;;3.50;2.97;;;19.20;99.90;;;;;;5004903;28;20728;-81
2022/09/14 06:53:39;;;;;;;2.57;2.37;;;19.20;99.90;;;;;;5004227;28;20667;-79
2022/09/14 06:56:06;;;;;;;2.40;2.10;;;19.20;99.90;;;;;;5009447;28;21374;-79
2022/09/14 06:58:35;;;;;;;2.20;2.03;;;19.30;99.90;;;;;;4993173;28;20694;-80
2022/09/14 07:01:03;;;;;;;2.40;2.30;;;19.20;99.90;;;;;;5009861;28;20628;-79
2022/09/14 07:03:31;;;;;;;3.27;2.20;;;19.30;99.90;;;;;;5000469;28;21065;-79
2022/09/14 07:06:09;;;;;;;3.03;2.57;;;19.30;99.90;;;;;;5009230;28;20994;-79
2022/09/14 07:08:37;;;;;;;2.60;2.40;;;19.40;99.90;;;;;;5008645;28;20628;-80
2022/09/14 07:11:05;;;;;;;2.80;2.43;;;19.50;99.90;;;;;;5008297;28;21115;-80
2022/09/14 07:13:33;;;;;;;3.47;2.50;;;19.40;99.90;;;;;;5008800;28;20641;-80
2022/09/14 07:16:02;;;;;;;2.20;2.00;;;;;;;;;;5008361;28;20632;-81
2022/09/14 07:18:31;;;;;;;2.20;1.90;;;19.50;99.90;;;;;;5006170;28;21245;-79
2022/09/14 07:21:01;;;;;;;2.43;1.93;;;19.60;99.90;;;;;;5004870;28;20637;-80
2022/09/14 07:23:28;;;;;;;2.77;2.57;;;19.60;99.90;;;;;;5008441;28;20655;-79
2022/09/14 07:26:02;;;;;;;2.60;2.37;;;19.70;99.90;;;;;;5007536;28;20731;-80
2022/09/14 07:28:29;;;;;;;3.57;3.27;;;19.70;99.90;;;;;;5007700;28;20679;-79
2022/09/14 07:30:56;;;;;;;2.97;2.77;;;19.70;99.90;;;;;;5008046;28;20626;-80
2022/09/14 07:33:26;;;;;;;3.53;2.97;;;19.70;99.90;;;;;;5007121;28;20632;-80
2022/09/14 07:35:54;;;;;;;2.50;2.40;;;19.80;99.90;;;;;;5007132;28;20652;-81
2022/09/14 07:38:21;;;;;;;2.60;2.40;;;19.80;99.90;;;;;;5008097;28;21186;-80
2022/09/14 07:40:48;;;;;;;4.00;2.20;;;19.80;99.90;;;;;;5008327;28;20716;-79
2022/09/14 07:43:15;;;;;;;2.70;2.50;;;19.90;99.90;;;;;;5007237;28;20655;-79
2022/09/14 07:45:42;;;;;;;2.90;2.27;;;20.00;99.90;;;;;;5007806;28;21230;-80
2022/09/14 07:48:08;;;;;;;3.33;2.73;;;20.00;99.90;;;;;;5005830;28;21075;-80
2022/09/14 07:50:35;;;;;;;2.53;2.33;;;20.00;99.90;;;;;;5007876;28;21439;-79
2022/09/14 07:53:03;;;;;;;2.87;2.67;;;20.10;99.90;;;;;;5006122;28;20624;-79
2022/09/14 07:55:31;;;;;;;2.80;2.60;;;20.10;99.90;;;;;;5006522;28;20635;-80
2022/09/14 07:57:58;;;;;;;2.30;2.10;;;20.20;99.90;;;;;;5005486;28;20667;-80
2022/09/14 08:00:26;;;;;;;2.37;2.17;;;20.30;99.90;;;;;;5008098;28;20623;-79
2022/09/14 08:02:54;;;;;;;2.80;2.20;;;20.20;99.90;;;;;;5000463;28;20668;-79
2022/09/14 08:05:21;;;;;;;3.27;2.67;;;20.50;99.90;;;;;;5003586;28;21427;-79
2022/09/14 08:07:48;;;;;;;3.47;2.60;;;20.50;99.90;;;;;;5007104;28;20620;-79
2022/09/14 08:10:16;;;;;;;3.33;3.13;;;20.60;99.90;;;;;;5005660;28;20620;-79
2022/09/14 08:12:43;;;;;;;2.87;2.57;;;20.80;99.90;;;;;;5008819;28;20628;-80
2022/09/14 08:15:10;;;;;;;2.30;2.10;;;20.80;99.90;;;;;;4994146;28;20625;-80
2022/09/14 08:17:38;;;;;;;3.03;2.77;;;21.00;99.90;;;;;;4992070;28;20754;-80
2022/09/14 08:20:05;;;;;;;2.37;2.17;;;21.00;99.90;;;;;;5008424;28;21204;-79
2022/09/14 08:22:32;;;;;;;2.37;2.17;;;21.10;99.90;;;;;;5008832;28;20712;-78
2022/09/14 08:24:59;;;;;;;2.07;1.97;;;21.10;99.90;;;;;;5007285;28;20620;-79
2022/09/14 08:27:27;;;;;;;2.77;2.57;;;21.20;99.90;;;;;;5008740;28;20727;-79
2022/09/14 08:29:54;;;;;;;1.97;1.87;;;21.20;99.90;;;;;;5000609;28;21203;-79
2022/09/14 08:32:21;;;;;;;2.40;2.20;;;21.30;99.90;;;;;;5006974;28;20624;-78
2022/09/14 08:34:48;;;;;;;2.47;2.27;;;21.20;99.90;;;;;;5006820;28;20644;-78
2022/09/14 08:37:14;;;;;;;2.57;2.37;;;21.20;99.90;;;;;;4990366;28;20660;-79
2022/09/14 08:39:41;;;;;;;2.00;1.80;;;21.30;99.90;;;;;;5003103;28;21292;-78
2022/09/14 08:42:15;;;;;;;2.40;2.20;;;21.30;99.90;;;;;;5007897;28;21086;-78
2022/09/14 08:44:49;;;;;;;4.77;2.60;;;21.30;99.90;;;;;;5007332;28;21006;-79
2022/09/14 08:47:19;;;;;;;2.87;2.40;;;21.40;99.90;;;;;;5008310;28;20674;-78
2022/09/14 08:49:50;;;;;;;2.60;2.00;;;21.30;99.90;;;;;;5007114;28;20632;-78
2022/09/14 08:52:24;;;;;;;2.00;1.80;;;21.30;99.90;;;;;;4995310;28;20628;-78
2022/09/14 08:54:54;;;;;;;2.67;2.47;;;21.30;99.90;;;;;;5007099;28;20628;-79
2022/09/14 08:57:28;;;;;;;2.30;2.20;;;21.40;99.90;;;;;;4989293;28;20656;-79
2022/09/14 09:00:05;;;;;;;1.83;1.73;;;21.30;99.90;;;;;;5006645;28;20616;-80
2022/09/14 09:02:54;;;;;;;1.80;1.70;;;21.30;99.90;;;;;;5004699;28;20642;-79
2022/09/14 09:05:32;;;;;;;2.33;2.23;;;21.40;99.90;;;;;;5007107;28;20630;-79
2022/09/14 09:08:05;;;;;;;2.63;2.27;;;21.40;99.90;;;;;;5007500;28;20795;-79
2022/09/14 09:10:33;;;;;;;2.57;2.37;;;21.40;99.90;;;;;;5007196;28;20731;-79
2022/09/14 09:13:04;;;;;;;2.53;1.90;;;21.60;99.90;;;;;;5002641;28;20632;-77
2022/09/14 09:15:36;;;;;;;1.80;1.70;;;21.60;99.90;;;;;;4991613;28;20620;-78
2022/09/14 09:18:07;;;;;;;2.67;2.17;;;21.70;99.90;;;;;;5006590;28;20664;-78
2022/09/14 09:20:38;;;;;;;2.63;2.20;;;21.80;99.90;;;;;;5007595;28;20628;-78
2022/09/14 09:23:12;;;;;;;2.30;1.90;;;21.90;99.90;;;;;;4996170;28;20628;-80
2022/09/14 09:25:52;;;;;;;1.70;1.60;;;22.10;99.90;;;;;;5007236;28;20626;-78
2022/09/14 09:28:19;;;;;;;2.40;2.20;;;22.30;99.90;;;;;;4993451;28;20628;-78
2022/09/14 09:30:48;;;;;;;1.70;1.60;;;22.40;99.90;;;;;;5006603;28;20620;-78
2022/09/14 09:33:19;;;;;;;1.80;1.70;;;22.40;99.90;;;;;;5006487;28;20727;-78
2022/09/14 09:35:46;;;;;;;2.07;1.90;;;22.50;99.90;;;;;;5009628;28;21118;-78
2022/09/14 09:38:15;;;;;;;1.70;1.60;;;22.60;99.90;;;;;;5011489;28;20672;-77
2022/09/14 09:40:46;;;;;;;4.83;2.57;;;22.60;99.90;;;;;;5010730;28;20878;-78
2022/09/14 09:43:15;;;;;;;2.40;2.07;;;22.70;99.90;;;;;;5006952;28;20628;-79
2022/09/14 09:45:58;;;;;;;1.60;1.50;;;22.80;99.90;;;;;;5010386;28;20624;-78
2022/09/14 09:48:29;;;;;;;3.70;1.80;;;22.90;99.90;;;;;;5010886;28;20678;-78
2022/09/14 09:51:07;;;;;;;2.37;2.17;;;23.00;99.90;;;;;;5010618;28;21591;-79
2022/09/14 09:53:37;;;;;;;2.07;1.97;;;23.00;99.90;;;;;;5011484;28;20727;-79
2022/09/14 09:56:05;;;;;;;4.67;2.30;;;23.10;99.90;;;;;;5010243;28;20634;-78
2022/09/14 09:58:35;;;;;;;2.10;1.90;;;23.40;99.90;;;;;;5007943;28;20783;-79
2022/09/14 10:01:05;;;;;;;1.97;1.87;;;23.40;99.90;;;;;;5010003;28;20638;-79
2022/09/14 10:03:35;;;;;;;1.70;1.60;;;23.30;99.90;;;;;;4998848;28;20956;-78
2022/09/14 10:06:08;;;;;;;2.40;2.20;;;23.30;99.90;;;;;;5010419;28;20635;-78
2022/09/14 10:08:42;;;;;;;1.90;1.80;;;23.40;99.90;;;;;;5010792;28;20660;-78
2022/09/14 10:11:28;;;;;;;1.77;1.67;;;23.40;99.90;;;;;;5009929;28;20632;-79
2022/09/14 10:13:56;;;;;;;2.30;2.20;;;23.40;99.90;;;;;;5010893;28;20619;-79
2022/09/14 10:16:28;;;;;;;2.37;2.03;;;23.40;99.90;;;;;;5009012;28;20628;-78
2022/09/14 10:18:56;;;;;;;1.93;1.83;;;23.40;99.90;;;;;;5006124;28;21575;-79
2022/09/14 10:21:24;;;;;;;2.37;2.17;;;23.40;99.90;;;;;;4997122;28;20632;-78
2022/09/14 10:24:04;;;;;;;2.13;1.93;;;23.30;99.90;;;;;;5009777;28;20616;-78
2022/09/14 10:26:34;;;;;;;2.10;2.00;;;23.30;99.90;;;;;;5010083;28;20624;-78
2022/09/14 10:29:37;;;;;;;3.43;2.33;;;23.40;99.90;;;;;;5009452;28;20628;-80
2022/09/14 10:32:16;;;;;;;2.63;2.40;;;23.20;99.90;;;;;;4935896;29;20649;-79
2022/09/14 10:34:43;;;;;;;3.87;2.40;;;23.20;99.90;;;;;;5002620;28;20705;-79
2022/09/14 10:37:28;;;;;;;3.00;2.80;;;23.20;99.90;;;;;;5010002;28;20628;-78
2022/09/14 10:40:12;;;;;;;2.30;2.10;;;23.40;99.90;;;;;;5010287;28;20663;-79
2022/09/14 10:42:44;;;;;;;2.13;1.50;;;23.40;99.90;;;;;;5009965;28;20994;-80
2022/09/14 10:45:21;;;;;;;1.90;1.77;;;23.30;99.90;;;;;;5008748;28;20631;-78
2022/09/14 10:48:22;;;;;;;2.20;1.80;;;23.40;99.90;;;;;;5010470;28;20986;-78
2022/09/14 10:50:57;;;;;;;2.27;2.07;;;23.50;99.90;;;;;;5009418;28;20648;-78
2022/09/14 10:53:40;;;;;;;2.03;1.93;;;23.50;99.90;;;;;;5010156;28;20631;-78
2022/09/14 10:56:11;;;;;;;2.17;2.07;;;23.50;99.90;;;;;;5009688;28;20660;-79
2022/09/14 10:58:52;;;;;;;1.47;1.37;;;23.50;99.90;;;;;;5008541;28;20666;-79
2022/09/14 11:01:33;;;;;;;2.70;1.90;;;23.70;99.90;;;;;;4996436;28;20709;-79
2022/09/14 11:04:19;;;;;;;2.07;1.90;;;23.70;99.90;;;;;;5009777;28;20682;-78
2022/09/14 11:06:53;;;;;;;2.03;1.90;;;23.70;99.90;;;;;;5009918;28;20625;-78
2022/09/14 11:09:24;;;;;;;1.80;1.70;;;23.70;99.90;;;;;;5006118;28;21243;-78
2022/09/14 11:12:03;;;;;;;3.60;2.47;;;23.80;99.90;;;;;;5009140;28;20620;-78
2022/09/14 11:14:52;;;;;;;2.77;1.97;;;24.00;99.90;;;;;;5009362;28;21207;-78
2022/09/14 11:17:48;;;;;;;2.07;1.97;;;23.90;99.90;;;;;;5008895;28;20987;-79
2022/09/14 11:20:27;;;;;;;2.03;1.83;;;23.90;99.90;;;;;;5002401;28;20655;-79
2022/09/14 11:23:04;;;;;;;1.77;1.67;;;24.20;99.90;;;;;;5008443;28;20632;-79
2022/09/14 11:25:44;;;;;;;1.70;1.60;;;24.40;99.90;;;;;;5009043;28;20659;-78
2022/09/14 11:28:16;;;;;;;4.10;1.73;;;24.50;99.90;;;;;;5007812;28;20643;-79
2022/09/14 11:30:48;;;;;;;1.50;1.40;;;24.60;99.90;;;;;;5008037;28;20728;-78
2022/09/14 11:33:32;;;;;;;1.70;1.60;;;24.60;99.60;;;;;;5002758;28;20692;-80
2022/09/14 11:36:20;;;;;;;1.97;1.87;;;24.50;99.60;;;;;;4990659;28;20703;-80
2022/09/14 11:38:53;;;;;;;1.93;1.60;;;24.50;99.40;;;;;;5001925;28;20664;-78
2022/09/14 11:41:28;;;;;;;3.70;1.63;;;24.60;98.90;;;;;;5005800;28;20628;-78
2022/09/14 11:43:59;;;;;;;1.87;1.53;;;24.70;98.70;;;;;;4988629;28;20632;-78
2022/09/14 11:46:32;;;;;;;1.57;1.37;;;24.80;98.50;;;;;;5004811;28;21178;-78
2022/09/14 11:49:10;;;;;;;1.70;1.60;;;24.80;97.30;;;;;;5007859;28;20735;-78
2022/09/14 11:51:48;;;;;;;1.63;1.53;;;24.70;97.00;;;;;;5003780;28;20639;-77
2022/09/14 11:54:28;;;;;;;2.60;2.17;;;24.60;97.50;;;;;;4998328;28;20723;-81
2022/09/14 11:56:58;;;;;;;2.80;1.50;;;24.50;97.00;;;;;;4993431;28;20613;-78
2022/09/14 11:59:47;;;;;;;1.77;1.67;;;24.50;97.30;;;;;;5000012;28;21149;-78
2022/09/14 12:02:53;;;;;;;1.80;1.70;;;24.50;97.50;;;;;;5005269;28;20652;-77
2022/09/14 12:05:34;;;;;;;2.70;1.70;;;24.50;98.20;;;;;;5000802;28;20686;-79
2022/09/14 12:08:05;;;;;;;1.53;1.43;;;24.60;96.80;;;;;;5008594;28;20670;-78
2022/09/14 12:11:05;;;;;;;2.13;1.93;;;24.40;97.20;;;;;;4997997;28;20659;-78
2022/09/14 12:13:32;;;;;;;1.50;1.40;;;24.30;97.60;;;;;;4994128;28;20617;-77
2022/09/14 12:16:04;;;;;;;1.70;1.20;;;24.20;97.80;;;;;;4996910;28;20625;-78
2022/09/14 12:18:32;;;;;;;1.77;1.67;;;24.30;97.50;;;;;;5001941;28;21354;-77
2022/09/14 12:21:06;;;;;;;1.77;1.50;;;24.30;97.60;;;;;;4995369;28;20796;-79
2022/09/14 12:23:43;;;;;;;1.70;1.53;;;24.20;98.30;;;;;;5000570;28;20636;-79
2022/09/14 12:26:30;;;;;;;3.63;1.90;;;24.30;97.90;;;;;;4997430;28;21033;-76
2022/09/14 12:29:02;;;;;;;4.20;1.50;;;24.30;97.50;;;;;;4993170;28;20655;-77
2022/09/14 12:31:58;;;;;;;1.70;1.60;;;24.20;97.50;;;;;;4994150;28;20696;-77
2022/09/14 12:34:29;;;;;;;1.70;1.60;;;24.20;98.00;;;;;;4997798;28;20768;-76
2022/09/14 12:37:24;;;;;;;1.40;1.30;;;24.00;98.00;;;;;;5005072;28;20639;-77
2022/09/14 12:40:36;;;;;;;1.17;1.07;;;24.00;97.10;;;;;;5006438;28;20779;-77
2022/09/14 12:43:45;;;;;;;1.60;1.40;;;23.70;97.40;;;;;;4998507;28;20632;-77
2022/09/14 12:46:39;;;;;;;3.17;1.70;;;23.60;98.20;;;;;;5007014;28;20983;-76
2022/09/14 12:49:34;;;;;;;2.00;1.23;;;23.40;98.60;;;;;;5000749;28;21232;-77
2022/09/14 12:52:20;;;;;;;1.23;1.13;;;23.00;98.90;;;;;;5003544;28;20620;-79
2022/09/14 12:54:59;;;;;;;1.30;1.20;;;22.80;99.90;;;;;;5007615;28;20632;-79
2022/09/14 12:57:34;;;;;;;1.77;1.67;;;22.70;99.90;;;;;;5008030;28;21229;-79
2022/09/14 13:00:10;;;;;;;2.07;1.83;;;22.40;99.90;;;;;;5010080;28;20655;-78
2022/09/14 13:03:07;;;;;;;1.90;1.57;;;22.10;99.90;;;;;;5008786;28;21078;-78
2022/09/14 13:05:34;;;;;;;3.00;1.87;;;21.90;99.90;;;;;;5010781;28;21198;-78
2022/09/14 13:08:07;;;;;;;1.87;1.70;;;21.80;99.90;;;;;;5012344;28;20642;-79
2022/09/14 13:10:37;;;;;;;3.13;1.60;;;21.70;99.90;;;;;;5013125;28;20640;-78
2022/09/14 13:13:13;;;;;;;1.73;1.63;;;21.60;99.90;;;;;;5015204;28;20621;-79